Time,TemperatureF,DewpointF,PressureIn,WindDirection,WindDirectionDegrees,WindSpeedMPH,WindSpeedGustMPH,Humidity,HourlyPrecipIn,Conditions,Clouds,dailyrainin,SoftwareType,DateUTC
2013-08-09 13:26:00,99.6,66.0,30.09,SW,229,4.3,5.0,34,0.00,,,0.25,TxWx,2013-08-09 18:26:00,
2013-08-09 13:27:00,99.8,66.0,30.09,SE,139,2.5,3.1,34,0.00,,,0.25,TxWx,2013-08-09 18:27:00,
2013-08-09 13:28:00,99.8,66.0,30.09,SW,229,5.6,5.6,34,0.00,,,0.25,TxWx,2013-08-09 18:28:00,
2013-08-09 13:29:00,99.8,66.0,30.09,SSE,162,8.7,8.7,33,0.00,,,0.25,TxWx,2013-08-09 18:29:00,
2013-08-09 13:32:00,100.0,66.0,30.09,SSE,162,9.9,9.9,33,0.00,,,0.25,TxWx,2013-08-09 18:32:00,
2013-08-09 13:33:00,98.7,66.0,30.09,WSW,252,4.3,5.0,35,0.00,,,0.25,TxWx,2013-08-09 18:33:00,
2013-08-09 13:34:00,98.4,66.0,30.09,West,274,3.7,3.7,36,0.00,,,0.25,TxWx,2013-08-09 18:34:00,
2013-08-09 13:35:00,97.8,66.0,30.09,WNW,297,3.7,5.0,36,0.00,,,0.25,TxWx,2013-08-09 18:35:00,
2013-08-09 13:37:00,97.7,67.0,30.09,SW,229,2.5,2.5,37,0.00,,,0.25,TxWx,2013-08-09 18:37:00,
2013-08-09 13:38:00,97.8,67.0,30.09,NNW,342,5.0,5.0,37,0.00,,,0.25,TxWx,2013-08-09 18:38:00,
2013-08-09 13:39:00,98.2,66.0,30.09,West,274,2.5,2.5,36,0.00,,,0.25,TxWx,2013-08-09 18:39:00,
2013-08-09 13:41:00,98.2,66.0,30.09,SW,229,1.9,1.9,36,0.00,,,0.25,TxWx,2013-08-09 18:41:00,
2013-08-09 13:43:00,99.1,67.0,30.09,SSE,162,5.0,5.0,36,0.00,,,0.25,TxWx,2013-08-09 18:43:00,
2013-08-09 13:45:00,99.7,66.0,30.09,SSW,207,3.7,3.7,34,0.00,,,0.25,TxWx,2013-08-09 18:45:00,
2013-08-09 13:46:00,99.8,66.0,30.09,SSE,162,1.2,1.2,33,0.00,,,0.25,TxWx,2013-08-09 18:46:00,
2013-08-09 13:47:00,99.9,66.0,30.09,North,4,3.1,3.7,33,0.00,,,0.25,TxWx,2013-08-09 18:47:00,
2013-08-09 13:48:00,100.0,66.0,30.09,SSE,162,1.2,1.2,33,0.00,,,0.25,TxWx,2013-08-09 18:48:00,
2013-08-09 13:50:00,99.5,66.0,30.09,West,274,4.3,6.2,34,0.00,,,0.25,TxWx,2013-08-09 18:50:00,
2013-08-09 13:51:00,100.2,66.0,30.09,WNW,297,2.5,2.5,34,0.00,,,0.25,TxWx,2013-08-09 18:51:00,
2013-08-09 13:52:00,100.4,66.0,30.09,South,184,6.2,6.2,33,0.00,,,0.25,TxWx,2013-08-09 18:52:00,
2013-08-09 13:55:00,100.6,60.0,30.09,South,184,7.4,8.0,27,0.00,,,0.25,TxWx,2013-08-09 18:55:00,
2013-08-09 13:56:00,100.8,60.0,30.08,SSW,207,5.6,7.4,26,0.00,,,0.25,TxWx,2013-08-09 18:56:00,
2013-08-09 13:57:00,101.0,58.0,30.08,SW,229,5.6,6.2,25,0.00,,,0.25,TxWx,2013-08-09 18:57:00,
2013-08-09 13:59:00,100.9,58.0,30.08,WSW,252,6.2,7.4,25,0.00,,,0.25,TxWx,2013-08-09 18:59:00,
2013-08-09 14:02:00,100.8,61.0,30.08,SW,229,5.6,6.2,27,0.00,,,0.25,TxWx,2013-08-09 19:02:00,
2013-08-09 14:03:00,100.8,60.0,30.08,WSW,252,7.4,8.0,26,0.00,,,0.25,TxWx,2013-08-09 19:03:00,
2013-08-09 14:05:00,101.6,59.0,30.09,SSE,162,3.7,5.0,25,0.00,,,0.25,TxWx,2013-08-09 19:05:00,
2013-08-09 14:07:00,101.5,59.0,30.08,SSW,207,9.3,9.3,26,0.00,,,0.25,TxWx,2013-08-09 19:07:00,
2013-08-09 14:08:00,101.1,59.0,30.08,SW,229,9.9,10.5,26,0.00,,,0.25,TxWx,2013-08-09 19:08:00,
2013-08-09 14:09:00,100.9,60.0,30.08,WSW,252,8.7,8.7,26,0.00,,,0.25,TxWx,2013-08-09 19:09:00,
2013-08-09 14:13:00,101.6,62.0,30.08,SW,229,5.6,5.6,27,0.00,,,0.25,TxWx,2013-08-09 19:13:00,
2013-08-09 14:14:00,101.4,61.0,30.08,South,184,1.2,1.2,27,0.00,,,0.25,TxWx,2013-08-09 19:14:00,
2013-08-09 14:19:00,102.1,60.0,30.08,SSW,207,6.2,6.2,26,0.00,,,0.25,TxWx,2013-08-09 19:19:00,
2013-08-09 14:20:00,102.0,60.0,30.08,SW,229,5.6,5.6,26,0.00,,,0.25,TxWx,2013-08-09 19:20:00,
2013-08-09 14:22:00,101.5,60.0,30.08,WSW,252,5.6,5.6,26,0.00,,,0.25,TxWx,2013-08-09 19:22:00,
2013-08-09 14:25:00,102.1,58.0,30.08,South,184,5.6,5.6,24,0.00,,,0.25,TxWx,2013-08-09 19:25:00,
2013-08-09 14:26:00,103.0,60.0,30.08,SW,229,4.3,4.3,25,0.00,,,0.25,TxWx,2013-08-09 19:26:00,
2013-08-09 14:29:00,103.8,62.0,30.16,SSE,162,6.2,6.2,26,0.00,,,0.25,TxWx,2013-08-09 19:29:00,
2013-08-09 14:30:00,101.6,60.0,30.08,SW,229,5.6,5.6,26,0.00,,,0.25,TxWx,2013-08-09 19:30:00,
2013-08-09 14:31:00,102.1,59.0,30.08,SSW,207,5.6,6.2,25,0.00,,,0.25,TxWx,2013-08-09 19:31:00,
2013-08-09 14:32:00,101.9,59.0,30.08,West,274,7.4,8.0,25,0.00,,,0.25,TxWx,2013-08-09 19:32:00,
2013-08-09 14:37:00,102.5,60.0,30.08,SW,229,7.4,7.4,26,0.00,,,0.25,TxWx,2013-08-09 19:37:00,
2013-08-09 14:38:00,101.7,59.0,30.08,WSW,252,5.0,5.0,25,0.00,,,0.25,TxWx,2013-08-09 19:38:00,
2013-08-09 14:42:00,101.3,61.0,30.07,SW,229,6.8,8.0,27,0.00,,,0.25,TxWx,2013-08-09 19:42:00,
2013-08-09 14:43:00,100.9,61.0,30.08,SSW,207,7.4,8.7,27,0.00,,,0.25,TxWx,2013-08-09 19:43:00,
2013-08-09 14:44:00,101.2,61.0,30.07,SW,229,6.8,6.8,28,0.00,,,0.25,TxWx,2013-08-09 19:44:00,
2013-08-09 14:45:00,102.0,62.0,30.08,SW,229,7.4,7.4,28,0.00,,,0.25,TxWx,2013-08-09 19:45:00,
2013-08-09 14:48:00,100.7,61.0,30.07,NW,319,5.0,5.0,28,0.00,,,0.25,TxWx,2013-08-09 19:48:00,
2013-08-09 14:49:00,101.6,62.0,30.07,SSW,207,3.7,5.0,28,0.00,,,0.25,TxWx,2013-08-09 19:49:00,
2013-08-09 14:50:00,101.3,61.0,30.08,SW,229,10.5,10.5,28,0.00,,,0.25,TxWx,2013-08-09 19:50:00,
2013-08-09 14:51:00,101.0,62.0,30.08,SSW,207,6.8,8.0,28,0.00,,,0.25,TxWx,2013-08-09 19:51:00,
2013-08-09 14:55:00,101.4,61.0,30.07,WSW,252,6.8,6.8,28,0.00,,,0.25,TxWx,2013-08-09 19:55:00,
2013-08-09 14:56:00,101.4,62.0,30.07,South,184,7.4,7.4,28,0.00,,,0.25,TxWx,2013-08-09 19:56:00,
2013-08-09 14:58:00,101.8,62.0,30.07,SSW,207,5.6,5.6,28,0.00,,,0.25,TxWx,2013-08-09 19:58:00,
2013-08-09 15:00:00,101.9,63.0,30.07,SSW,207,5.0,5.6,28,0.00,,,0.25,TxWx,2013-08-09 20:00:00,
2013-08-09 15:02:00,102.0,62.0,30.07,WSW,252,3.1,4.3,28,0.00,,,0.25,TxWx,2013-08-09 20:02:00,
2013-08-09 15:03:00,102.4,63.0,30.07,West,274,2.5,2.5,28,0.00,,,0.25,TxWx,2013-08-09 20:03:00,
2013-08-09 15:04:00,102.7,63.0,30.07,SW,229,4.3,5.0,28,0.00,,,0.25,TxWx,2013-08-09 20:04:00,
2013-08-09 15:05:00,103.0,63.0,30.07,SW,229,3.1,4.3,28,0.00,,,0.25,TxWx,2013-08-09 20:05:00,
2013-08-09 15:09:00,102.2,62.0,30.07,WNW,297,3.1,3.1,27,0.00,,,0.25,TxWx,2013-08-09 20:09:00,
2013-08-09 15:10:00,102.6,62.0,30.07,SSW,207,2.5,2.5,27,0.00,,,0.25,TxWx,2013-08-09 20:10:00,
2013-08-09 15:12:00,102.3,63.0,30.07,SSW,207,3.7,4.3,28,0.00,,,0.25,TxWx,2013-08-09 20:12:00,
2013-08-09 15:13:00,102.3,63.0,30.07,NW,319,6.8,6.8,28,0.00,,,0.25,TxWx,2013-08-09 20:13:00,
2013-08-09 15:14:00,101.5,63.0,30.07,North,4,5.0,5.0,28,0.00,,,0.25,TxWx,2013-08-09 20:14:00,
2013-08-09 15:15:00,101.1,62.0,30.07,NNW,342,5.0,5.0,28,0.00,,,0.25,TxWx,2013-08-09 20:15:00,
2013-08-09 15:18:00,101.1,63.0,30.07,North,4,2.5,2.5,29,0.00,,,0.25,TxWx,2013-08-09 20:18:00,
2013-08-09 15:20:00,101.8,64.0,30.07,WSW,252,5.0,5.6,30,0.00,,,0.25,TxWx,2013-08-09 20:20:00,
2013-08-09 15:21:00,101.9,64.0,30.07,WSW,252,5.6,6.8,29,0.00,,,0.25,TxWx,2013-08-09 20:21:00,
2013-08-09 15:22:00,101.7,64.0,30.07,SW,229,8.0,8.0,29,0.00,,,0.25,TxWx,2013-08-09 20:22:00,
2013-08-09 15:26:00,101.6,64.0,30.07,North,4,1.2,1.9,29,0.00,,,0.25,TxWx,2013-08-09 20:26:00,
2013-08-09 15:27:00,101.9,64.0,30.06,ENE,72,4.3,4.3,29,0.00,,,0.25,TxWx,2013-08-09 20:27:00,
2013-08-09 15:28:00,102.1,63.0,30.06,SSE,162,6.2,6.2,29,0.00,,,0.25,TxWx,2013-08-09 20:28:00,
2013-08-09 15:29:00,102.2,64.0,30.07,South,184,3.1,3.1,29,0.00,,,0.25,TxWx,2013-08-09 20:29:00,
2013-08-09 15:32:00,101.6,63.0,30.06,NW,319,3.1,3.1,29,0.00,,,0.25,TxWx,2013-08-09 20:32:00,
2013-08-09 15:33:00,101.0,63.0,30.06,West,274,5.0,5.0,29,0.00,,,0.25,TxWx,2013-08-09 20:33:00,
2013-08-09 15:34:00,101.0,63.0,30.06,WNW,297,5.6,5.6,29,0.00,,,0.25,TxWx,2013-08-09 20:34:00,
2013-08-09 15:35:00,101.3,63.0,30.06,NNW,342,4.3,5.0,30,0.00,,,0.25,TxWx,2013-08-09 20:35:00,
2013-08-09 15:38:00,101.8,64.0,30.06,WNW,297,6.8,6.8,30,0.00,,,0.25,TxWx,2013-08-09 20:38:00,
2013-08-09 15:39:00,101.2,63.0,30.06,North,4,3.7,5.0,30,0.00,,,0.25,TxWx,2013-08-09 20:39:00,
2013-08-09 15:40:00,101.5,63.0,30.06,NNW,342,5.0,5.0,30,0.00,,,0.25,TxWx,2013-08-09 20:40:00,
2013-08-09 15:43:00,101.8,64.0,30.06,SW,229,3.1,3.1,30,0.00,,,0.25,TxWx,2013-08-09 20:43:00,
2013-08-09 15:44:00,102.3,64.0,30.06,SSE,162,5.0,5.0,30,0.00,,,0.25,TxWx,2013-08-09 20:44:00,
2013-08-09 15:46:00,102.5,64.0,30.06,SE,139,5.0,5.0,29,0.00,,,0.25,TxWx,2013-08-09 20:46:00,
2013-08-09 15:48:00,103.4,64.0,30.06,WNW,297,1.9,1.9,29,0.00,,,0.25,TxWx,2013-08-09 20:48:00,
2013-08-09 15:49:00,103.5,65.0,30.06,SSW,207,0.6,0.6,29,0.00,,,0.25,TxWx,2013-08-09 20:49:00,
2013-08-09 15:51:00,103.8,64.0,30.06,East,94,4.3,4.3,28,0.00,,,0.25,TxWx,2013-08-09 20:51:00,
2013-08-09 15:52:00,103.7,64.0,30.06,East,94,3.1,3.1,28,0.00,,,0.25,TxWx,2013-08-09 20:52:00,
2013-08-09 15:55:00,104.1,63.0,30.06,South,184,5.6,6.8,27,0.00,,,0.25,TxWx,2013-08-09 20:55:00,
2013-08-09 15:56:00,103.9,60.0,30.05,SW,229,8.7,8.7,24,0.00,,,0.25,TxWx,2013-08-09 20:56:00,
2013-08-09 15:58:00,103.9,60.0,30.05,SW,229,4.3,5.6,24,0.00,,,0.25,TxWx,2013-08-09 20:58:00,
2013-08-09 15:59:00,103.5,60.0,30.05,SSW,207,8.0,8.0,24,0.00,,,0.25,TxWx,2013-08-09 20:59:00,
2013-08-09 16:01:00,102.7,58.0,30.05,SSE,162,6.2,7.4,24,0.00,,,0.25,TxWx,2013-08-09 21:01:00,
2013-08-09 16:03:00,103.3,59.0,30.05,South,184,3.1,3.1,24,0.00,,,0.25,TxWx,2013-08-09 21:03:00,
2013-08-09 16:05:00,103.8,60.0,30.05,SE,139,1.2,1.2,24,0.00,,,0.25,TxWx,2013-08-09 21:05:00,
2013-08-09 16:07:00,104.1,60.0,30.05,SSE,162,6.2,6.2,24,0.00,,,0.25,TxWx,2013-08-09 21:07:00,
2013-08-09 16:08:00,103.6,59.0,30.05,SE,139,6.8,6.8,24,0.00,,,0.25,TxWx,2013-08-09 21:08:00,
2013-08-09 16:10:00,103.3,58.0,30.05,SSE,162,6.8,7.4,24,0.00,,,0.25,TxWx,2013-08-09 21:10:00,
2013-08-09 16:11:00,103.3,59.0,30.05,SSE,162,6.8,6.8,24,0.00,,,0.25,TxWx,2013-08-09 21:11:00,
2013-08-09 16:12:00,102.9,60.0,30.05,SSE,162,9.3,9.9,25,0.00,,,0.25,TxWx,2013-08-09 21:12:00,
2013-08-09 16:13:00,103.9,60.0,30.05,SSW,207,4.3,4.3,25,0.00,,,0.25,TxWx,2013-08-09 21:13:00,
2013-08-09 16:14:00,103.7,60.0,30.05,SW,229,5.0,5.0,25,0.00,,,0.25,TxWx,2013-08-09 21:14:00,
2013-08-09 16:15:00,103.5,60.0,30.05,SSE,162,3.7,4.3,25,0.00,,,0.25,TxWx,2013-08-09 21:15:00,
2013-08-09 16:17:00,104.0,60.0,30.05,SW,229,7.4,7.4,25,0.00,,,0.25,TxWx,2013-08-09 21:17:00,
2013-08-09 16:19:00,103.2,60.0,30.05,SW,229,5.0,5.0,25,0.00,,,0.25,TxWx,2013-08-09 21:19:00,
2013-08-09 16:20:00,103.5,60.0,30.05,SSW,207,1.9,1.9,25,0.00,,,0.25,TxWx,2013-08-09 21:20:00,
2013-08-09 16:21:00,104.0,61.0,30.05,SSE,162,5.0,5.0,25,0.00,,,0.25,TxWx,2013-08-09 21:21:00,
2013-08-09 16:23:00,103.2,59.0,30.05,SSE,162,6.8,7.4,24,0.00,,,0.25,TxWx,2013-08-09 21:23:00,
2013-08-09 16:24:00,103.9,60.0,30.04,SSE,162,6.8,8.0,24,0.00,,,0.25,TxWx,2013-08-09 21:24:00,
2013-08-09 16:26:00,103.8,60.0,30.04,ESE,117,2.5,3.1,25,0.00,,,0.25,TxWx,2013-08-09 21:26:00,
2013-08-09 16:27:00,103.9,60.0,30.04,SE,139,4.3,4.3,25,0.00,,,0.25,TxWx,2013-08-09 21:27:00,
2013-08-09 16:28:00,103.8,61.0,30.04,SSE,162,7.4,8.0,25,0.00,,,0.25,TxWx,2013-08-09 21:28:00,
2013-08-09 16:29:00,103.5,60.0,30.04,SSE,162,5.6,6.2,25,0.00,,,0.25,TxWx,2013-08-09 21:29:00,
2013-08-09 16:30:00,103.7,61.0,30.04,South,184,6.8,6.8,25,0.00,,,0.25,TxWx,2013-08-09 21:30:00,
2013-08-09 16:32:00,103.8,61.0,30.04,SSE,162,4.3,5.0,25,0.00,,,0.25,TxWx,2013-08-09 21:32:00,
2013-08-09 16:34:00,104.0,61.0,30.04,South,184,3.1,3.7,25,0.00,,,0.25,TxWx,2013-08-09 21:34:00,
2013-08-09 16:35:00,104.3,61.0,30.04,SSW,207,3.1,3.7,25,0.00,,,0.25,TxWx,2013-08-09 21:35:00,
2013-08-09 16:39:00,104.9,62.0,30.04,SSE,162,0.6,1.2,25,0.00,,,0.25,TxWx,2013-08-09 21:39:00,
2013-08-09 16:41:00,105.1,61.0,30.04,SSW,207,8.0,8.0,25,0.00,,,0.25,TxWx,2013-08-09 21:41:00,
2013-08-09 16:42:00,105.0,62.0,30.04,SE,139,3.1,3.7,25,0.00,,,0.25,TxWx,2013-08-09 21:42:00,
2013-08-09 16:43:00,104.7,61.0,30.03,SSE,162,5.6,6.8,25,0.00,,,0.25,TxWx,2013-08-09 21:43:00,
2013-08-09 16:45:00,105.1,61.0,30.03,SSE,162,3.1,3.7,25,0.00,,,0.25,TxWx,2013-08-09 21:45:00,
2013-08-09 16:46:00,105.4,61.0,30.03,SSW,207,6.2,6.8,25,0.00,,,0.25,TxWx,2013-08-09 21:46:00,
2013-08-09 16:47:00,105.0,61.0,30.03,SSW,207,7.4,7.4,25,0.00,,,0.25,TxWx,2013-08-09 21:47:00,
2013-08-09 16:48:00,104.9,61.0,30.03,SSE,162,6.8,8.0,25,0.00,,,0.25,TxWx,2013-08-09 21:48:00,
2013-08-09 16:49:00,105.1,61.0,30.03,SSE,162,5.0,5.6,25,0.00,,,0.25,TxWx,2013-08-09 21:49:00,
2013-08-09 16:51:00,104.4,60.0,30.03,ESE,117,5.6,5.6,25,0.00,,,0.25,TxWx,2013-08-09 21:51:00,
2013-08-09 16:52:00,104.0,61.0,30.03,SSE,162,9.9,9.9,25,0.00,,,0.25,TxWx,2013-08-09 21:52:00,
2013-08-09 16:53:00,103.9,61.0,30.03,SSE,162,4.3,5.6,25,0.00,,,0.25,TxWx,2013-08-09 21:53:00,
2013-08-09 16:54:00,104.5,61.0,30.03,SSW,207,8.0,9.3,25,0.00,,,0.25,TxWx,2013-08-09 21:54:00,
2013-08-09 16:58:00,105.4,62.0,30.03,SW,229,5.6,5.6,26,0.00,,,0.25,TxWx,2013-08-09 21:58:00,
2013-08-09 17:01:00,105.4,61.0,30.02,South,184,3.7,3.7,25,0.00,,,0.25,TxWx,2013-08-09 22:01:00,
2013-08-09 17:03:00,105.5,63.0,30.02,SW,229,7.4,7.4,26,0.00,,,0.25,TxWx,2013-08-09 22:03:00,
2013-08-09 17:04:00,105.5,62.0,30.02,South,184,7.4,8.0,26,0.00,,,0.25,TxWx,2013-08-09 22:04:00,
2013-08-09 17:05:00,105.0,62.0,30.02,South,184,8.0,8.0,26,0.00,,,0.25,TxWx,2013-08-09 22:05:00,
2013-08-09 17:07:00,104.4,62.0,30.02,SSW,207,5.0,5.6,26,0.00,,,0.25,TxWx,2013-08-09 22:07:00,
2013-08-09 17:09:00,105.5,62.0,30.02,SSW,207,6.2,6.2,26,0.00,,,0.25,TxWx,2013-08-09 22:09:00,
2013-08-09 17:10:00,105.3,62.0,30.02,SW,229,4.3,5.0,26,0.00,,,0.25,TxWx,2013-08-09 22:10:00,
2013-08-09 17:14:00,105.0,63.0,30.02,WSW,252,3.1,3.7,26,0.00,,,0.25,TxWx,2013-08-09 22:14:00,
2013-08-09 17:15:00,105.5,64.0,30.02,SSW,207,2.5,2.5,27,0.00,,,0.25,TxWx,2013-08-09 22:15:00,
2013-08-09 17:16:00,105.5,64.0,30.02,SW,229,1.9,2.5,27,0.00,,,0.25,TxWx,2013-08-09 22:16:00,
2013-08-09 17:19:00,105.1,63.0,30.02,South,184,6.2,6.8,26,0.00,,,0.25,TxWx,2013-08-09 22:19:00,
2013-08-09 17:20:00,105.0,63.0,30.02,SW,229,9.3,9.3,26,0.00,,,0.25,TxWx,2013-08-09 22:20:00,
2013-08-09 17:21:00,105.2,63.0,30.02,SSW,207,5.0,5.0,26,0.00,,,0.25,TxWx,2013-08-09 22:21:00,
2013-08-09 17:22:00,105.0,62.0,30.02,South,184,10.5,10.5,26,0.00,,,0.25,TxWx,2013-08-09 22:22:00,
2013-08-09 17:23:00,105.3,62.0,30.02,South,184,6.8,6.8,26,0.00,,,0.25,TxWx,2013-08-09 22:23:00,
2013-08-09 17:26:00,105.0,62.0,30.01,SSE,162,5.6,5.6,26,0.00,,,0.25,TxWx,2013-08-09 22:26:00,
2013-08-09 17:27:00,104.1,62.0,30.01,South,184,6.2,6.2,26,0.00,,,0.25,TxWx,2013-08-09 22:27:00,
2013-08-09 17:28:00,104.9,62.0,30.01,SW,229,5.0,5.6,26,0.00,,,0.25,TxWx,2013-08-09 22:28:00,
2013-08-09 17:30:00,104.4,61.0,30.01,SSW,207,1.9,1.9,25,0.00,,,0.25,TxWx,2013-08-09 22:30:00,
2013-08-09 17:33:00,105.0,62.0,30.01,SW,229,5.0,5.0,26,0.00,,,0.25,TxWx,2013-08-09 22:33:00,
2013-08-09 17:34:00,104.8,62.0,30.01,SW,229,3.1,3.7,25,0.00,,,0.25,TxWx,2013-08-09 22:34:00,
2013-08-09 17:35:00,104.5,62.0,30.01,WSW,252,5.6,5.6,26,0.00,,,0.25,TxWx,2013-08-09 22:35:00,
2013-08-09 17:38:00,104.2,62.0,30.01,North,4,5.6,5.6,26,0.00,,,0.25,TxWx,2013-08-09 22:38:00,
2013-08-09 17:39:00,104.4,62.0,30.01,NNE,27,3.7,3.7,26,0.00,,,0.25,TxWx,2013-08-09 22:39:00,
2013-08-09 17:40:00,104.7,63.0,30.01,SSE,162,3.7,4.3,26,0.00,,,0.25,TxWx,2013-08-09 22:40:00,
2013-08-09 17:41:00,105.0,63.0,30.01,South,184,1.9,1.9,26,0.00,,,0.25,TxWx,2013-08-09 22:41:00,
2013-08-09 17:43:00,105.2,62.0,30.01,SW,229,4.3,4.3,25,0.00,,,0.25,TxWx,2013-08-09 22:43:00,
2013-08-09 17:44:00,104.8,61.0,30.01,West,274,7.4,7.4,25,0.00,,,0.25,TxWx,2013-08-09 22:44:00,
2013-08-09 17:46:00,105.3,61.0,30.02,SSE,162,4.3,5.0,24,0.00,,,0.25,TxWx,2013-08-09 22:46:00,
2013-08-09 17:47:00,104.9,61.0,30.02,SSE,162,6.2,6.8,24,0.00,,,0.25,TxWx,2013-08-09 22:47:00,
2013-08-09 17:48:00,105.0,61.0,30.02,SSW,207,2.5,3.1,24,0.00,,,0.25,TxWx,2013-08-09 22:48:00,
2013-08-09 17:50:00,105.5,62.0,30.02,SSE,162,3.1,3.1,24,0.00,,,0.25,TxWx,2013-08-09 22:50:00,
2013-08-09 17:51:00,105.7,62.0,30.02,SSE,162,1.9,2.5,24,0.00,,,0.25,TxWx,2013-08-09 22:51:00,
2013-08-09 17:52:00,106.1,62.0,30.02,WSW,252,3.7,4.3,24,0.00,,,0.25,TxWx,2013-08-09 22:52:00,
2013-08-09 17:54:00,105.0,60.0,30.02,WSW,252,5.6,6.8,24,0.00,,,0.25,TxWx,2013-08-09 22:54:00,
2013-08-09 17:55:00,104.6,60.0,30.02,SSW,207,7.4,7.4,24,0.00,,,0.25,TxWx,2013-08-09 22:55:00,
2013-08-09 17:56:00,104.8,61.0,30.02,SSE,162,5.0,5.0,24,0.00,,,0.25,TxWx,2013-08-09 22:56:00,
2013-08-09 17:58:00,104.4,59.0,30.02,SSW,207,5.0,5.0,24,0.00,,,0.25,TxWx,2013-08-09 22:58:00,
2013-08-09 18:00:00,105.1,61.0,30.02,SSW,207,4.3,4.3,25,0.00,,,0.25,TxWx,2013-08-09 23:00:00,
2013-08-09 18:03:00,104.9,61.0,30.02,SW,229,3.1,3.1,24,0.00,,,0.25,TxWx,2013-08-09 23:03:00,
2013-08-09 18:04:00,104.8,61.0,30.02,WNW,297,6.2,6.2,24,0.00,,,0.25,TxWx,2013-08-09 23:04:00,
2013-08-09 18:06:00,104.3,60.0,30.02,WNW,297,3.1,3.1,24,0.00,,,0.25,TxWx,2013-08-09 23:06:00,
2013-08-09 18:07:00,104.5,61.0,30.02,WNW,297,1.9,1.9,24,0.00,,,0.25,TxWx,2013-08-09 23:07:00,
2013-08-09 18:10:00,104.5,60.0,30.02,SW,229,5.6,5.6,24,0.00,,,0.25,TxWx,2013-08-09 23:10:00,
2013-08-09 18:11:00,104.5,60.0,30.02,SW,229,5.0,5.0,25,0.00,,,0.25,TxWx,2013-08-09 23:11:00,
2013-08-09 18:12:00,104.8,61.0,30.02,SSE,162,3.1,3.7,25,0.00,,,0.25,TxWx,2013-08-09 23:12:00,
2013-08-09 18:14:00,104.3,59.0,30.02,SW,229,5.6,5.6,24,0.00,,,0.25,TxWx,2013-08-09 23:14:00,
2013-08-09 18:15:00,104.3,60.0,30.02,SW,229,2.5,3.1,24,0.00,,,0.25,TxWx,2013-08-09 23:15:00,
2013-08-09 18:18:00,104.7,60.0,30.02,SW,229,3.7,4.3,24,0.00,,,0.25,TxWx,2013-08-09 23:18:00,
2013-08-09 18:19:00,104.3,59.0,30.02,SSE,162,8.0,8.0,24,0.00,,,0.25,TxWx,2013-08-09 23:19:00,
2013-08-09 18:20:00,104.8,60.0,30.02,SW,229,3.7,3.7,24,0.00,,,0.25,TxWx,2013-08-09 23:20:00,